sensor_id;sensor_type;location;lat;lon;timestamp;P1;durP1;ratioP1;P2;durP2;ratioP2
56728;SDS011;42612;52.232;7.560;2023-05-07T00:01:45;3.83;;;3.38;;
56728;SDS011;42612;52.232;7.560;2023-05-07T00:04:11;7.07;;;5.07;;
56728;SDS011;42612;52.232;7.560;2023-05-07T00:06:38;8.23;;;4.95;;
56728;SDS011;42612;52.232;7.560;2023-05-07T00:09:04;8.25;;;5.38;;
56728;SDS011;42612;52.232;7.560;2023-05-07T00:11:31;7.90;;;6.05;;
56728;SDS011;42612;52.232;7.560;2023-05-07T00:13:58;6.60;;;5.78;;
56728;SDS011;42612;52.232;7.560;2023-05-07T00:16:24;8.70;;;6.40;;
56728;SDS011;42612;52.232;7.560;2023-05-07T00:18:49;8.15;;;6.82;;
56728;SDS011;42612;52.232;7.560;2023-05-07T00:21:15;8.43;;;5.95;;
56728;SDS011;42612;52.232;7.560;2023-05-07T00:23:41;9.32;;;7.18;;
56728;SDS011;42612;52.232;7.560;2023-05-07T00:26:07;10.20;;;7.30;;
56728;SDS011;42612;52.232;7.560;2023-05-07T00:28:32;8.25;;;6.53;;
56728;SDS011;42612;52.232;7.560;2023-05-07T00:30:58;8.10;;;6.10;;
56728;SDS011;42612;52.232;7.560;2023-05-07T00:33:24;8.82;;;6.85;;
56728;SDS011;42612;52.232;7.560;2023-05-07T00:35:51;10.45;;;7.13;;
56728;SDS011;42612;52.232;7.560;2023-05-07T00:38:17;8.90;;;7.38;;
56728;SDS011;42612;52.232;7.560;2023-05-07T00:40:43;7.18;;;5.75;;
56728;SDS011;42612;52.232;7.560;2023-05-07T00:43:08;8.10;;;6.53;;
56728;SDS011;42612;52.232;7.560;2023-05-07T00:45:34;9.07;;;7.20;;
56728;SDS011;42612;52.232;7.560;2023-05-07T00:48:00;10.05;;;7.95;;
56728;SDS011;42612;52.232;7.560;2023-05-07T00:50:27;9.48;;;6.72;;
56728;SDS011;42612;52.232;7.560;2023-05-07T00:52:54;10.73;;;6.22;;
56728;SDS011;42612;52.232;7.560;2023-05-07T00:55:21;12.40;;;7.93;;
56728;SDS011;42612;52.232;7.560;2023-05-07T00:57:48;7.55;;;5.93;;
56728;SDS011;42612;52.232;7.560;2023-05-07T01:00:15;9.93;;;7.40;;
56728;SDS011;42612;52.232;7.560;2023-05-07T01:02:42;9.05;;;6.43;;
56728;SDS011;42612;52.232;7.560;2023-05-07T01:05:09;9.73;;;8.50;;
56728;SDS011;42612;52.232;7.560;2023-05-07T01:07:36;31.15;;;25.40;;
56728;SDS011;42612;52.232;7.560;2023-05-07T01:10:05;19.70;;;15.20;;
56728;SDS011;42612;52.232;7.560;2023-05-07T01:12:32;10.88;;;8.32;;
56728;SDS011;42612;52.232;7.560;2023-05-07T01:14:59;12.45;;;9.07;;
56728;SDS011;42612;52.232;7.560;2023-05-07T01:17:26;8.65;;;7.43;;
56728;SDS011;42612;52.232;7.560;2023-05-07T01:19:52;10.48;;;8.48;;
56728;SDS011;42612;52.232;7.560;2023-05-07T01:22:26;11.43;;;8.60;;
56728;SDS011;42612;52.232;7.560;2023-05-07T01:24:58;9.32;;;8.13;;
56728;SDS011;42612;52.232;7.560;2023-05-07T01:27:26;10.90;;;8.55;;
56728;SDS011;42612;52.232;7.560;2023-05-07T01:29:52;11.82;;;8.23;;
56728;SDS011;42612;52.232;7.560;2023-05-07T01:32:23;12.55;;;9.32;;
56728;SDS011;42612;52.232;7.560;2023-05-07T01:34:54;11.80;;;8.68;;
56728;SDS011;42612;52.232;7.560;2023-05-07T01:37:22;13.05;;;9.82;;
56728;SDS011;42612;52.232;7.560;2023-05-07T01:39:49;12.07;;;8.55;;
56728;SDS011;42612;52.232;7.560;2023-05-07T01:42:15;12.25;;;9.07;;
56728;SDS011;42612;52.232;7.560;2023-05-07T01:44:41;14.10;;;9.30;;
56728;SDS011;42612;52.232;7.560;2023-05-07T01:47:07;11.52;;;8.57;;
56728;SDS011;42612;52.232;7.560;2023-05-07T01:49:34;11.05;;;8.32;;
56728;SDS011;42612;52.232;7.560;2023-05-07T01:52:00;10.80;;;8.00;;
56728;SDS011;42612;52.232;7.560;2023-05-07T01:54:26;12.07;;;9.40;;
56728;SDS011;42612;52.232;7.560;2023-05-07T01:56:52;12.02;;;9.20;;
56728;SDS011;42612;52.232;7.560;2023-05-07T01:59:19;10.63;;;8.45;;
56728;SDS011;42612;52.232;7.560;2023-05-07T02:01:45;18.42;;;9.95;;
56728;SDS011;42612;52.232;7.560;2023-05-07T02:04:11;11.07;;;8.95;;
56728;SDS011;42612;52.232;7.560;2023-05-07T02:06:36;10.93;;;8.65;;
56728;SDS011;42612;52.232;7.560;2023-05-07T02:09:02;11.93;;;9.15;;
56728;SDS011;42612;52.232;7.560;2023-05-07T02:11:28;13.50;;;9.23;;
56728;SDS011;42612;52.232;7.560;2023-05-07T02:13:53;11.43;;;8.90;;
56728;SDS011;42612;52.232;7.560;2023-05-07T02:16:19;11.07;;;8.68;;
56728;SDS011;42612;52.232;7.560;2023-05-07T02:18:46;11.33;;;9.40;;
56728;SDS011;42612;52.232;7.560;2023-05-07T02:21:11;13.48;;;9.00;;
56728;SDS011;42612;52.232;7.560;2023-05-07T02:23:37;12.88;;;9.82;;
56728;SDS011;42612;52.232;7.560;2023-05-07T02:26:03;13.38;;;9.65;;
56728;SDS011;42612;52.232;7.560;2023-05-07T02:28:29;13.70;;;7.72;;
56728;SDS011;42612;52.232;7.560;2023-05-07T02:30:55;11.55;;;9.50;;
56728;SDS011;42612;52.232;7.560;2023-05-07T02:33:23;13.23;;;9.20;;
56728;SDS011;42612;52.232;7.560;2023-05-07T02:35:49;12.73;;;9.65;;
56728;SDS011;42612;52.232;7.560;2023-05-07T02:38:16;17.25;;;10.80;;
56728;SDS011;42612;52.232;7.560;2023-05-07T02:40:42;14.02;;;10.38;;
56728;SDS011;42612;52.232;7.560;2023-05-07T02:43:08;14.55;;;9.70;;
56728;SDS011;42612;52.232;7.560;2023-05-07T02:45:34;12.35;;;8.70;;
56728;SDS011;42612;52.232;7.560;2023-05-07T02:48:01;8.10;;;6.07;;
56728;SDS011;42612;52.232;7.560;2023-05-07T02:50:26;15.18;;;9.68;;
56728;SDS011;42612;52.232;7.560;2023-05-07T02:52:52;15.77;;;9.77;;
56728;SDS011;42612;52.232;7.560;2023-05-07T02:55:18;12.88;;;10.23;;
56728;SDS011;42612;52.232;7.560;2023-05-07T02:57:43;11.55;;;8.30;;
56728;SDS011;42612;52.232;7.560;2023-05-07T03:00:10;12.52;;;9.68;;
56728;SDS011;42612;52.232;7.560;2023-05-07T03:02:44;14.82;;;10.77;;
56728;SDS011;42612;52.232;7.560;2023-05-07T03:05:10;13.40;;;8.80;;
56728;SDS011;42612;52.232;7.560;2023-05-07T03:07:36;15.10;;;10.23;;
56728;SDS011;42612;52.232;7.560;2023-05-07T03:10:02;11.50;;;8.80;;
56728;SDS011;42612;52.232;7.560;2023-05-07T03:12:29;12.43;;;10.07;;
56728;SDS011;42612;52.232;7.560;2023-05-07T03:14:55;15.07;;;11.38;;
56728;SDS011;42612;52.232;7.560;2023-05-07T03:17:21;15.68;;;10.00;;
56728;SDS011;42612;52.232;7.560;2023-05-07T03:19:46;15.52;;;10.93;;
56728;SDS011;42612;52.232;7.560;2023-05-07T03:22:12;14.35;;;10.70;;
56728;SDS011;42612;52.232;7.560;2023-05-07T03:24:38;11.48;;;9.63;;
56728;SDS011;42612;52.232;7.560;2023-05-07T03:27:03;10.65;;;8.10;;
56728;SDS011;42612;52.232;7.560;2023-05-07T03:29:29;12.88;;;9.82;;
56728;SDS011;42612;52.232;7.560;2023-05-07T03:31:55;12.50;;;9.15;;
56728;SDS011;42612;52.232;7.560;2023-05-07T03:34:21;16.83;;;11.07;;
56728;SDS011;42612;52.232;7.560;2023-05-07T03:36:50;12.93;;;9.00;;
56728;SDS011;42612;52.232;7.560;2023-05-07T03:39:16;16.88;;;11.45;;
56728;SDS011;42612;52.232;7.560;2023-05-07T03:41:42;14.48;;;10.57;;
56728;SDS011;42612;52.232;7.560;2023-05-07T03:44:07;15.48;;;10.73;;
56728;SDS011;42612;52.232;7.560;2023-05-07T03:46:33;15.15;;;10.60;;
56728;SDS011;42612;52.232;7.560;2023-05-07T03:48:59;16.50;;;11.30;;
56728;SDS011;42612;52.232;7.560;2023-05-07T03:51:25;18.42;;;12.05;;
56728;SDS011;42612;52.232;7.560;2023-05-07T03:53:51;15.20;;;11.00;;
56728;SDS011;42612;52.232;7.560;2023-05-07T03:56:22;16.33;;;12.00;;
56728;SDS011;42612;52.232;7.560;2023-05-07T03:58:51;12.07;;;8.45;;
56728;SDS011;42612;52.232;7.560;2023-05-07T04:01:17;14.25;;;11.20;;
56728;SDS011;42612;52.232;7.560;2023-05-07T04:03:43;15.70;;;11.30;;
56728;SDS011;42612;52.232;7.560;2023-05-07T04:06:08;11.18;;;8.55;;
56728;SDS011;42612;52.232;7.560;2023-05-07T04:08:34;16.60;;;11.05;;
56728;SDS011;42612;52.232;7.560;2023-05-07T04:11:00;13.68;;;10.27;;
56728;SDS011;42612;52.232;7.560;2023-05-07T04:13:26;15.52;;;11.85;;
56728;SDS011;42612;52.232;7.560;2023-05-07T04:15:52;17.38;;;11.68;;
56728;SDS011;42612;52.232;7.560;2023-05-07T04:18:19;13.70;;;9.65;;
56728;SDS011;42612;52.232;7.560;2023-05-07T04:20:46;16.42;;;11.32;;
56728;SDS011;42612;52.232;7.560;2023-05-07T04:23:12;16.73;;;11.80;;
56728;SDS011;42612;52.232;7.560;2023-05-07T04:25:38;15.25;;;11.30;;
56728;SDS011;42612;52.232;7.560;2023-05-07T04:28:04;15.40;;;11.23;;
56728;SDS011;42612;52.232;7.560;2023-05-07T04:30:30;13.97;;;10.30;;
56728;SDS011;42612;52.232;7.560;2023-05-07T04:32:56;14.82;;;11.30;;
56728;SDS011;42612;52.232;7.560;2023-05-07T04:35:22;19.67;;;11.95;;
56728;SDS011;42612;52.232;7.560;2023-05-07T04:37:48;16.85;;;11.93;;
56728;SDS011;42612;52.232;7.560;2023-05-07T04:40:13;15.77;;;11.45;;
56728;SDS011;42612;52.232;7.560;2023-05-07T04:42:39;16.02;;;12.02;;
56728;SDS011;42612;52.232;7.560;2023-05-07T04:45:05;19.17;;;11.82;;
56728;SDS011;42612;52.232;7.560;2023-05-07T04:47:31;15.60;;;11.82;;
56728;SDS011;42612;52.232;7.560;2023-05-07T04:49:57;15.80;;;11.55;;
56728;SDS011;42612;52.232;7.560;2023-05-07T04:52:23;18.10;;;12.43;;
56728;SDS011;42612;52.232;7.560;2023-05-07T04:54:49;16.35;;;11.63;;
56728;SDS011;42612;52.232;7.560;2023-05-07T04:57:14;18.48;;;12.30;;
56728;SDS011;42612;52.232;7.560;2023-05-07T05:02:09;13.75;;;10.82;;
56728;SDS011;42612;52.232;7.560;2023-05-07T05:04:54;17.77;;;11.95;;
56728;SDS011;42612;52.232;7.560;2023-05-07T05:07:20;16.60;;;11.20;;
56728;SDS011;42612;52.232;7.560;2023-05-07T05:09:45;14.85;;;10.75;;
56728;SDS011;42612;52.232;7.560;2023-05-07T05:12:11;15.45;;;11.30;;
56728;SDS011;42612;52.232;7.560;2023-05-07T05:14:37;14.55;;;11.23;;
56728;SDS011;42612;52.232;7.560;2023-05-07T05:17:02;12.85;;;9.70;;
56728;SDS011;42612;52.232;7.560;2023-05-07T05:19:28;15.88;;;10.45;;
56728;SDS011;42612;52.232;7.560;2023-05-07T05:21:54;15.93;;;11.73;;
56728;SDS011;42612;52.232;7.560;2023-05-07T05:24:20;15.35;;;10.80;;
56728;SDS011;42612;52.232;7.560;2023-05-07T05:26:45;13.05;;;9.20;;
56728;SDS011;42612;52.232;7.560;2023-05-07T05:29:11;14.82;;;11.35;;
56728;SDS011;42612;52.232;7.560;2023-05-07T05:31:37;15.23;;;11.35;;
56728;SDS011;42612;52.232;7.560;2023-05-07T05:34:02;15.30;;;10.93;;
56728;SDS011;42612;52.232;7.560;2023-05-07T05:36:28;17.30;;;12.45;;
56728;SDS011;42612;52.232;7.560;2023-05-07T05:38:55;12.52;;;9.23;;
56728;SDS011;42612;52.232;7.560;2023-05-07T05:41:21;15.80;;;11.35;;
56728;SDS011;42612;52.232;7.560;2023-05-07T05:43:47;15.57;;;11.48;;
56728;SDS011;42612;52.232;7.560;2023-05-07T05:46:13;17.75;;;11.90;;
56728;SDS011;42612;52.232;7.560;2023-05-07T05:48:40;16.30;;;11.02;;
56728;SDS011;42612;52.232;7.560;2023-05-07T05:51:05;14.60;;;10.88;;
56728;SDS011;42612;52.232;7.560;2023-05-07T05:53:31;15.82;;;11.27;;
56728;SDS011;42612;52.232;7.560;2023-05-07T05:55:57;13.15;;;9.40;;
56728;SDS011;42612;52.232;7.560;2023-05-07T05:58:22;16.10;;;11.73;;
56728;SDS011;42612;52.232;7.560;2023-05-07T06:00:48;13.65;;;10.98;;
56728;SDS011;42612;52.232;7.560;2023-05-07T06:03:17;15.43;;;11.82;;
56728;SDS011;42612;52.232;7.560;2023-05-07T06:05:42;17.13;;;11.68;;
56728;SDS011;42612;52.232;7.560;2023-05-07T06:08:08;14.25;;;10.60;;
56728;SDS011;42612;52.232;7.560;2023-05-07T06:10:35;13.95;;;10.40;;
56728;SDS011;42612;52.232;7.560;2023-05-07T06:13:02;16.27;;;11.95;;
56728;SDS011;42612;52.232;7.560;2023-05-07T06:15:27;15.85;;;10.27;;
56728;SDS011;42612;52.232;7.560;2023-05-07T06:17:53;13.13;;;10.68;;
56728;SDS011;42612;52.232;7.560;2023-05-07T06:20:21;16.73;;;11.75;;
56728;SDS011;42612;52.232;7.560;2023-05-07T06:22:46;10.88;;;7.85;;
56728;SDS011;42612;52.232;7.560;2023-05-07T06:25:12;19.20;;;10.77;;
56728;SDS011;42612;52.232;7.560;2023-05-07T06:27:37;13.93;;;11.18;;
56728;SDS011;42612;52.232;7.560;2023-05-07T06:30:04;14.67;;;11.43;;
56728;SDS011;42612;52.232;7.560;2023-05-07T06:32:33;12.73;;;10.07;;
56728;SDS011;42612;52.232;7.560;2023-05-07T06:34:59;13.60;;;10.90;;
56728;SDS011;42612;52.232;7.560;2023-05-07T06:37:24;14.32;;;10.75;;
56728;SDS011;42612;52.232;7.560;2023-05-07T06:39:50;15.07;;;11.95;;
56728;SDS011;42612;52.232;7.560;2023-05-07T06:42:16;16.10;;;11.23;;
56728;SDS011;42612;52.232;7.560;2023-05-07T06:44:41;13.82;;;10.02;;
56728;SDS011;42612;52.232;7.560;2023-05-07T06:47:07;15.48;;;12.05;;
56728;SDS011;42612;52.232;7.560;2023-05-07T06:49:33;12.20;;;9.18;;
56728;SDS011;42612;52.232;7.560;2023-05-07T06:51:59;9.88;;;7.80;;
56728;SDS011;42612;52.232;7.560;2023-05-07T06:54:24;28.42;;;19.25;;
56728;SDS011;42612;52.232;7.560;2023-05-07T06:56:50;25.48;;;16.85;;
56728;SDS011;42612;52.232;7.560;2023-05-07T06:59:16;22.00;;;14.88;;
56728;SDS011;42612;52.232;7.560;2023-05-07T07:01:41;16.20;;;12.10;;
56728;SDS011;42612;52.232;7.560;2023-05-07T07:04:07;12.50;;;10.00;;
56728;SDS011;42612;52.232;7.560;2023-05-07T07:06:33;14.55;;;10.90;;
56728;SDS011;42612;52.232;7.560;2023-05-07T07:08:59;21.88;;;15.00;;
56728;SDS011;42612;52.232;7.560;2023-05-07T07:11:25;13.85;;;11.43;;
56728;SDS011;42612;52.232;7.560;2023-05-07T07:13:51;13.65;;;10.57;;
56728;SDS011;42612;52.232;7.560;2023-05-07T07:16:19;13.00;;;9.40;;
56728;SDS011;42612;52.232;7.560;2023-05-07T07:18:46;13.45;;;9.18;;
56728;SDS011;42612;52.232;7.560;2023-05-07T07:21:11;17.20;;;10.10;;
56728;SDS011;42612;52.232;7.560;2023-05-07T07:23:37;15.07;;;10.57;;
56728;SDS011;42612;52.232;7.560;2023-05-07T07:26:03;15.27;;;11.65;;
56728;SDS011;42612;52.232;7.560;2023-05-07T07:28:28;11.95;;;9.57;;
56728;SDS011;42612;52.232;7.560;2023-05-07T07:30:54;16.70;;;10.45;;
56728;SDS011;42612;52.232;7.560;2023-05-07T07:33:20;16.35;;;11.52;;
56728;SDS011;42612;52.232;7.560;2023-05-07T07:35:46;13.82;;;9.57;;
56728;SDS011;42612;52.232;7.560;2023-05-07T07:38:11;12.95;;;10.70;;
56728;SDS011;42612;52.232;7.560;2023-05-07T07:40:37;13.18;;;10.38;;
56728;SDS011;42612;52.232;7.560;2023-05-07T07:43:03;18.35;;;11.32;;
56728;SDS011;42612;52.232;7.560;2023-05-07T07:45:29;12.95;;;10.20;;
56728;SDS011;42612;52.232;7.560;2023-05-07T07:47:55;14.50;;;10.85;;
56728;SDS011;42612;52.232;7.560;2023-05-07T07:50:21;15.23;;;11.40;;
56728;SDS011;42612;52.232;7.560;2023-05-07T07:52:47;17.98;;;10.15;;
56728;SDS011;42612;52.232;7.560;2023-05-07T07:55:13;12.63;;;9.05;;
56728;SDS011;42612;52.232;7.560;2023-05-07T07:57:43;17.42;;;11.45;;
56728;SDS011;42612;52.232;7.560;2023-05-07T08:00:08;13.95;;;10.20;;
56728;SDS011;42612;52.232;7.560;2023-05-07T08:02:35;15.55;;;9.57;;
56728;SDS011;42612;52.232;7.560;2023-05-07T08:05:00;14.02;;;10.60;;
56728;SDS011;42612;52.232;7.560;2023-05-07T08:07:26;15.82;;;10.07;;
56728;SDS011;42612;52.232;7.560;2023-05-07T08:09:52;14.85;;;11.00;;
56728;SDS011;42612;52.232;7.560;2023-05-07T08:12:17;15.90;;;11.40;;
56728;SDS011;42612;52.232;7.560;2023-05-07T08:14:44;12.90;;;10.40;;
56728;SDS011;42612;52.232;7.560;2023-05-07T08:17:09;14.45;;;10.95;;
56728;SDS011;42612;52.232;7.560;2023-05-07T08:19:35;13.00;;;9.95;;
56728;SDS011;42612;52.232;7.560;2023-05-07T08:22:02;13.45;;;10.32;;
56728;SDS011;42612;52.232;7.560;2023-05-07T08:24:29;15.45;;;10.65;;
56728;SDS011;42612;52.232;7.560;2023-05-07T08:26:55;14.98;;;10.77;;
56728;SDS011;42612;52.232;7.560;2023-05-07T08:29:20;14.10;;;10.23;;
56728;SDS011;42612;52.232;7.560;2023-05-07T08:31:46;16.45;;;10.00;;
56728;SDS011;42612;52.232;7.560;2023-05-07T08:34:12;12.05;;;9.32;;
56728;SDS011;42612;52.232;7.560;2023-05-07T08:36:37;15.02;;;10.93;;
56728;SDS011;42612;52.232;7.560;2023-05-07T08:39:03;14.30;;;10.60;;
56728;SDS011;42612;52.232;7.560;2023-05-07T08:41:29;16.80;;;10.75;;
56728;SDS011;42612;52.232;7.560;2023-05-07T08:43:56;15.63;;;9.90;;
56728;SDS011;42612;52.232;7.560;2023-05-07T08:46:25;12.95;;;10.02;;
56728;SDS011;42612;52.232;7.560;2023-05-07T08:48:56;13.63;;;10.00;;
56728;SDS011;42612;52.232;7.560;2023-05-07T08:51:22;14.43;;;10.82;;
56728;SDS011;42612;52.232;7.560;2023-05-07T08:53:52;15.35;;;10.80;;
56728;SDS011;42612;52.232;7.560;2023-05-07T08:56:17;16.80;;;10.93;;
56728;SDS011;42612;52.232;7.560;2023-05-07T09:01:14;14.65;;;10.57;;
56728;SDS011;42612;52.232;7.560;2023-05-07T09:03:42;15.30;;;10.57;;
56728;SDS011;42612;52.232;7.560;2023-05-07T09:06:10;14.13;;;10.43;;
56728;SDS011;42612;52.232;7.560;2023-05-07T09:08:36;14.30;;;10.65;;
56728;SDS011;42612;52.232;7.560;2023-05-07T09:11:02;15.77;;;10.27;;
56728;SDS011;42612;52.232;7.560;2023-05-07T09:13:28;13.43;;;9.82;;
56728;SDS011;42612;52.232;7.560;2023-05-07T09:15:54;14.07;;;10.82;;
56728;SDS011;42612;52.232;7.560;2023-05-07T09:18:21;17.33;;;10.68;;
56728;SDS011;42612;52.232;7.560;2023-05-07T09:20:48;13.63;;;10.00;;
56728;SDS011;42612;52.232;7.560;2023-05-07T09:23:14;12.90;;;9.88;;
56728;SDS011;42612;52.232;7.560;2023-05-07T09:25:40;15.43;;;10.95;;
56728;SDS011;42612;52.232;7.560;2023-05-07T09:28:05;16.73;;;10.50;;
56728;SDS011;42612;52.232;7.560;2023-05-07T09:30:33;13.98;;;10.52;;
56728;SDS011;42612;52.232;7.560;2023-05-07T09:32:59;15.18;;;10.63;;
56728;SDS011;42612;52.232;7.560;2023-05-07T09:35:27;19.30;;;11.10;;
56728;SDS011;42612;52.232;7.560;2023-05-07T09:37:54;14.50;;;10.70;;
56728;SDS011;42612;52.232;7.560;2023-05-07T09:40:25;12.32;;;10.32;;
56728;SDS011;42612;52.232;7.560;2023-05-07T09:42:53;13.90;;;9.65;;
56728;SDS011;42612;52.232;7.560;2023-05-07T09:45:24;14.88;;;9.82;;
56728;SDS011;42612;52.232;7.560;2023-05-07T09:47:53;12.07;;;9.95;;
56728;SDS011;42612;52.232;7.560;2023-05-07T09:50:30;14.35;;;10.35;;
56728;SDS011;42612;52.232;7.560;2023-05-07T09:53:01;14.75;;;11.00;;
56728;SDS011;42612;52.232;7.560;2023-05-07T09:55:28;13.38;;;9.35;;
56728;SDS011;42612;52.232;7.560;2023-05-07T09:57:55;12.55;;;9.10;;
56728;SDS011;42612;52.232;7.560;2023-05-07T10:02:48;12.32;;;10.13;;
56728;SDS011;42612;52.232;7.560;2023-05-07T10:05:17;12.13;;;9.50;;
56728;SDS011;42612;52.232;7.560;2023-05-07T10:07:45;17.08;;;10.18;;
56728;SDS011;42612;52.232;7.560;2023-05-07T10:10:11;16.55;;;9.15;;
56728;SDS011;42612;52.232;7.560;2023-05-07T10:12:38;13.40;;;10.10;;
56728;SDS011;42612;52.232;7.560;2023-05-07T10:15:08;15.40;;;9.65;;
56728;SDS011;42612;52.232;7.560;2023-05-07T10:17:36;12.73;;;9.68;;
56728;SDS011;42612;52.232;7.560;2023-05-07T10:20:05;13.23;;;10.00;;
56728;SDS011;42612;52.232;7.560;2023-05-07T10:22:33;12.07;;;9.48;;
56728;SDS011;42612;52.232;7.560;2023-05-07T10:25:26;14.35;;;9.35;;
56728;SDS011;42612;52.232;7.560;2023-05-07T10:27:56;11.55;;;9.35;;
56728;SDS011;42612;52.232;7.560;2023-05-07T10:33:21;12.20;;;9.65;;
56728;SDS011;42612;52.232;7.560;2023-05-07T10:35:58;9.90;;;8.60;;
56728;SDS011;42612;52.232;7.560;2023-05-07T10:38:29;12.32;;;9.70;;
56728;SDS011;42612;52.232;7.560;2023-05-07T10:40:55;10.75;;;9.38;;
56728;SDS011;42612;52.232;7.560;2023-05-07T10:43:21;10.35;;;8.77;;
56728;SDS011;42612;52.232;7.560;2023-05-07T10:51:32;9.15;;;8.02;;
56728;SDS011;42612;52.232;7.560;2023-05-07T10:56:37;10.95;;;8.13;;
56728;SDS011;42612;52.232;7.560;2023-05-07T11:01:55;10.45;;;8.00;;
56728;SDS011;42612;52.232;7.560;2023-05-07T11:04:31;10.02;;;7.90;;
56728;SDS011;42612;52.232;7.560;2023-05-07T11:07:44;13.07;;;8.88;;
56728;SDS011;42612;52.232;7.560;2023-05-07T11:15:03;9.50;;;7.07;;
56728;SDS011;42612;52.232;7.560;2023-05-07T11:17:54;8.95;;;7.68;;
56728;SDS011;42612;52.232;7.560;2023-05-07T11:26:02;7.63;;;6.82;;
56728;SDS011;42612;52.232;7.560;2023-05-07T11:28:36;10.10;;;7.00;;
56728;SDS011;42612;52.232;7.560;2023-05-07T11:31:04;8.43;;;7.35;;
56728;SDS011;42612;52.232;7.560;2023-05-07T11:33:30;9.15;;;7.05;;
56728;SDS011;42612;52.232;7.560;2023-05-07T11:35:56;6.73;;;6.03;;
56728;SDS011;42612;52.232;7.560;2023-05-07T11:38:23;9.40;;;6.85;;
56728;SDS011;42612;52.232;7.560;2023-05-07T11:40:50;10.93;;;6.90;;
56728;SDS011;42612;52.232;7.560;2023-05-07T11:43:25;6.25;;;5.65;;
56728;SDS011;42612;52.232;7.560;2023-05-07T11:45:52;6.70;;;5.95;;
56728;SDS011;42612;52.232;7.560;2023-05-07T11:48:18;8.25;;;6.68;;
56728;SDS011;42612;52.232;7.560;2023-05-07T11:50:53;7.25;;;6.32;;
56728;SDS011;42612;52.232;7.560;2023-05-07T11:53:41;5.88;;;5.22;;
56728;SDS011;42612;52.232;7.560;2023-05-07T11:56:08;6.97;;;6.25;;
56728;SDS011;42612;52.232;7.560;2023-05-07T11:58:39;6.20;;;5.60;;
56728;SDS011;42612;52.232;7.560;2023-05-07T12:01:07;6.30;;;5.68;;
56728;SDS011;42612;52.232;7.560;2023-05-07T12:03:34;7.95;;;5.68;;
56728;SDS011;42612;52.232;7.560;2023-05-07T12:06:02;6.30;;;5.70;;
56728;SDS011;42612;52.232;7.560;2023-05-07T12:08:31;5.80;;;5.22;;
56728;SDS011;42612;52.232;7.560;2023-05-07T12:10:57;6.47;;;5.68;;
56728;SDS011;42612;52.232;7.560;2023-05-07T12:13:24;10.45;;;5.65;;
56728;SDS011;42612;52.232;7.560;2023-05-07T12:15:54;6.45;;;5.68;;
56728;SDS011;42612;52.232;7.560;2023-05-07T12:18:21;5.45;;;4.85;;
56728;SDS011;42612;52.232;7.560;2023-05-07T12:20:48;5.75;;;4.97;;
56728;SDS011;42612;52.232;7.560;2023-05-07T12:25:41;6.07;;;4.32;;
56728;SDS011;42612;52.232;7.560;2023-05-07T12:28:15;6.93;;;4.55;;
56728;SDS011;42612;52.232;7.560;2023-05-07T12:30:42;5.60;;;4.85;;
56728;SDS011;42612;52.232;7.560;2023-05-07T12:33:10;5.90;;;5.15;;
56728;SDS011;42612;52.232;7.560;2023-05-07T12:35:38;4.72;;;4.32;;
56728;SDS011;42612;52.232;7.560;2023-05-07T12:38:10;4.68;;;4.20;;
56728;SDS011;42612;52.232;7.560;2023-05-07T12:40:42;5.15;;;4.60;;
56728;SDS011;42612;52.232;7.560;2023-05-07T12:43:25;4.88;;;4.38;;
56728;SDS011;42612;52.232;7.560;2023-05-07T12:45:56;5.15;;;4.65;;
56728;SDS011;42612;52.232;7.560;2023-05-07T12:48:26;6.43;;;4.75;;
56728;SDS011;42612;52.232;7.560;2023-05-07T12:50:52;6.35;;;4.82;;
56728;SDS011;42612;52.232;7.560;2023-05-07T12:53:23;5.47;;;4.40;;
56728;SDS011;42612;52.232;7.560;2023-05-07T12:55:51;5.50;;;4.80;;
56728;SDS011;42612;52.232;7.560;2023-05-07T12:58:20;4.25;;;3.85;;
56728;SDS011;42612;52.232;7.560;2023-05-07T13:00:50;4.45;;;4.05;;
56728;SDS011;42612;52.232;7.560;2023-05-07T13:03:23;5.45;;;4.53;;
56728;SDS011;42612;52.232;7.560;2023-05-07T13:06:01;5.78;;;4.40;;
56728;SDS011;42612;52.232;7.560;2023-05-07T13:08:36;6.45;;;4.40;;
56728;SDS011;42612;52.232;7.560;2023-05-07T13:11:06;4.40;;;4.03;;
56728;SDS011;42612;52.232;7.560;2023-05-07T13:13:34;5.50;;;4.80;;
56728;SDS011;42612;52.232;7.560;2023-05-07T13:16:01;4.70;;;4.07;;
56728;SDS011;42612;52.232;7.560;2023-05-07T13:18:31;4.97;;;4.38;;
56728;SDS011;42612;52.232;7.560;2023-05-07T13:20:58;5.95;;;4.05;;
56728;SDS011;42612;52.232;7.560;2023-05-07T13:23:25;4.68;;;4.25;;
56728;SDS011;42612;52.232;7.560;2023-05-07T13:25:51;4.53;;;4.07;;
56728;SDS011;42612;52.232;7.560;2023-05-07T13:28:21;4.45;;;3.80;;
56728;SDS011;42612;52.232;7.560;2023-05-07T13:30:48;4.50;;;4.10;;
56728;SDS011;42612;52.232;7.560;2023-05-07T13:33:14;4.30;;;3.90;;
56728;SDS011;42612;52.232;7.560;2023-05-07T13:35:40;7.57;;;4.20;;
56728;SDS011;42612;52.232;7.560;2023-05-07T13:38:06;5.68;;;4.00;;
56728;SDS011;42612;52.232;7.560;2023-05-07T13:40:32;5.97;;;4.57;;
56728;SDS011;42612;52.232;7.560;2023-05-07T13:42:58;5.45;;;4.95;;
56728;SDS011;42612;52.232;7.560;2023-05-07T13:45:27;5.75;;;4.30;;
56728;SDS011;42612;52.232;7.560;2023-05-07T13:47:54;6.28;;;4.35;;
56728;SDS011;42612;52.232;7.560;2023-05-07T13:50:21;5.30;;;4.80;;
56728;SDS011;42612;52.232;7.560;2023-05-07T13:52:46;8.00;;;4.97;;
56728;SDS011;42612;52.232;7.560;2023-05-07T13:55:16;4.80;;;4.22;;
56728;SDS011;42612;52.232;7.560;2023-05-07T13:57:43;4.93;;;4.43;;
56728;SDS011;42612;52.232;7.560;2023-05-07T14:00:09;5.40;;;4.80;;
56728;SDS011;42612;52.232;7.560;2023-05-07T14:02:35;5.28;;;4.43;;
56728;SDS011;42612;52.232;7.560;2023-05-07T14:05:01;4.43;;;4.03;;
56728;SDS011;42612;52.232;7.560;2023-05-07T14:07:27;5.25;;;4.22;;
56728;SDS011;42612;52.232;7.560;2023-05-07T14:09:53;4.90;;;4.43;;
56728;SDS011;42612;52.232;7.560;2023-05-07T14:12:19;9.15;;;4.30;;
56728;SDS011;42612;52.232;7.560;2023-05-07T14:14:45;5.07;;;4.03;;
56728;SDS011;42612;52.232;7.560;2023-05-07T14:17:11;5.88;;;4.10;;
56728;SDS011;42612;52.232;7.560;2023-05-07T14:19:37;4.20;;;3.80;;
56728;SDS011;42612;52.232;7.560;2023-05-07T14:22:03;5.38;;;4.53;;
56728;SDS011;42612;52.232;7.560;2023-05-07T14:24:29;4.70;;;4.20;;
56728;SDS011;42612;52.232;7.560;2023-05-07T14:26:55;4.88;;;4.20;;
56728;SDS011;42612;52.232;7.560;2023-05-07T14:29:21;5.60;;;3.88;;
56728;SDS011;42612;52.232;7.560;2023-05-07T14:31:47;4.18;;;3.78;;
56728;SDS011;42612;52.232;7.560;2023-05-07T14:34:13;5.22;;;3.80;;
56728;SDS011;42612;52.232;7.560;2023-05-07T14:36:39;5.65;;;4.20;;
56728;SDS011;42612;52.232;7.560;2023-05-07T14:39:04;5.30;;;3.80;;
56728;SDS011;42612;52.232;7.560;2023-05-07T14:41:30;4.47;;;4.07;;
56728;SDS011;42612;52.232;7.560;2023-05-07T14:46:24;3.90;;;3.53;;
56728;SDS011;42612;52.232;7.560;2023-05-07T14:48:50;4.55;;;4.10;;
56728;SDS011;42612;52.232;7.560;2023-05-07T14:51:16;4.40;;;4.00;;
56728;SDS011;42612;52.232;7.560;2023-05-07T14:53:42;6.03;;;4.03;;
56728;SDS011;42612;52.232;7.560;2023-05-07T14:56:07;3.75;;;3.45;;
56728;SDS011;42612;52.232;7.560;2023-05-07T14:58:33;4.80;;;3.67;;
56728;SDS011;42612;52.232;7.560;2023-05-07T15:01:00;4.47;;;3.35;;
56728;SDS011;42612;52.232;7.560;2023-05-07T15:03:26;4.03;;;3.60;;
56728;SDS011;42612;52.232;7.560;2023-05-07T15:05:52;3.70;;;3.40;;
56728;SDS011;42612;52.232;7.560;2023-05-07T15:08:17;5.00;;;3.35;;
56728;SDS011;42612;52.232;7.560;2023-05-07T15:10:43;6.28;;;4.03;;